Time;durP1;ratioP1;P1;durP2;ratioP2;P2;SDS_P1;SDS_P2;PMS_P1;PMS_P2;Temp;Humidity;BMP_temperature;BMP_pressure;BME280_temperature;BME280_humidity;BME280_pressure;Samples;Min_cycle;Max_cycle;Signal;HPM_P1;HPM_P2
2023/01/17 00:01:56;;;;;;;3.25;0.90;;;;;;;;;;5065196;27;87619;-69
2023/01/17 00:09:57;;;;;;;5.07;1.30;;;;;;;;;;5062339;27;87691;-69
2023/01/17 00:12:28;;;;;;;3.67;1.15;;;;;;;;;;5043693;27;88437;-69
2023/01/17 00:14:58;;;;;;;4.82;1.02;;;;;;;;;;5061968;27;87981;-69
2023/01/17 00:17:26;;;;;;;3.90;0.90;;;;;;;;;;5061775;27;88693;-69
2023/01/17 01:35:21;;;;;;;2.08;0.80;;;;;;;;;;5064713;27;87616;-68
2023/01/17 01:37:47;;;;;;;2.55;0.65;;;;;;;;;;5054566;27;88713;-68
2023/01/17 01:40:14;;;;;;;3.35;0.75;;;;;;;;;;5060238;27;89532;-69
2023/01/17 01:42:57;;;;;;;2.20;0.88;;;;;;;;;;5067012;27;87886;-69
2023/01/17 01:45:27;;;;;;;2.50;0.80;;;;;;;;;;5063840;27;88897;-69
2023/01/17 01:47:56;;;;;;;0.93;0.70;;;;;;;;;;5060058;27;87837;-69
2023/01/17 01:50:23;;;;;;;1.92;0.47;;;;;;;;;;5059415;27;88574;-68
2023/01/17 01:52:53;;;;;;;2.40;0.52;;;;;;;;;;5064173;27;88624;-68
2023/01/17 01:55:38;;;;;;;2.17;0.50;;;;;;;;;;5053657;27;87530;-69
2023/01/17 01:58:10;;;;;;;2.63;0.70;;;;;;;;;;5039717;27;89032;-69
2023/01/17 02:00:37;;;;;;;3.17;0.70;;;;;;;;;;5064188;27;89211;-69
2023/01/17 02:03:06;;;;;;;2.10;0.70;;;;;;;;;;5064245;27;87164;-68
2023/01/17 02:05:34;;;;;;;2.13;0.55;;;;;;;;;;5066735;27;87839;-68
2023/01/17 02:08:01;;;;;;;3.47;0.68;;;;;;;;;;5063630;27;88025;-69
2023/01/17 02:10:31;;;;;;;2.58;0.70;;;;;;;;;;5055093;27;88397;-69
2023/01/17 02:12:58;;;;;;;2.15;0.70;;;;;;;;;;5059181;27;88311;-69
2023/01/17 02:15:30;;;;;;;3.50;0.90;;;;;;;;;;5054419;27;87910;-68
2023/01/17 02:17:59;;;;;;;1.67;0.50;;;;;;;;;;5062779;27;88151;-68
2023/01/17 02:20:44;;;;;;;2.30;0.70;;;;;;;;;;5053542;27;88389;-68
2023/01/17 02:23:29;;;;;;;1.58;0.50;;;;;;;;;;5063107;27;88076;-67
2023/01/17 02:26:05;;;;;;;3.42;0.80;;;;;;;;;;5053077;27;89388;-68
2023/01/17 02:28:37;;;;;;;3.42;0.75;;;;;;;;;;5055789;27;87480;-67
2023/01/17 02:31:10;;;;;;;2.80;0.70;;;;;;;;;;5067705;27;87834;-68
2023/01/17 02:33:55;;;;;;;3.00;0.75;;;;;;;;;;5047226;27;88781;-68
2023/01/17 02:36:24;;;;;;;3.55;0.85;;;;;;;;;;5066891;27;88396;-68
2023/01/17 02:39:03;;;;;;;0.95;0.60;;;;;;;;;;5029079;27;90118;-68
2023/01/17 02:41:32;;;;;;;2.83;0.80;;;;;;;;;;5047839;27;90135;-68
2023/01/17 02:44:00;;;;;;;2.45;0.70;;;;;;;;;;5067032;27;87536;-68
2023/01/17 02:46:27;;;;;;;1.50;0.65;;;;;;;;;;5066013;27;88946;-68
2023/01/17 02:48:54;;;;;;;3.13;0.73;;;;;;;;;;5066360;27;88271;-68
2023/01/17 02:51:24;;;;;;;1.90;0.60;;;;;;;;;;5069576;27;87914;-69
2023/01/17 02:53:50;;;;;;;2.97;0.90;;;;;;;;;;5066961;27;88605;-68
2023/01/17 02:56:25;;;;;;;5.82;0.68;;;;;;;;;;5055223;27;87945;-68
2023/01/17 02:58:59;;;;;;;3.58;0.90;;;;;;;;;;5045701;27;90333;-68
2023/01/17 03:01:25;;;;;;;;;;;;;;;;;;5054369;27;89163;-68
2023/01/17 03:04:21;;;;;;;1.58;0.60;;;;;;;;;;5063465;27;116943;-68
2023/01/17 03:06:52;;;;;;;3.65;0.90;;;;;;;;;;4976409;27;88996;-68
2023/01/17 03:09:20;;;;;;;1.50;0.65;;;;;;;;;;5063237;27;88931;-69
2023/01/17 03:11:46;;;;;;;3.25;0.80;;;;;;;;;;5045977;28;87810;-69
2023/01/17 03:14:12;;;;;;;3.03;0.82;;;;;;;;;;5067228;27;88083;-68
2023/01/17 03:16:39;;;;;;;3.10;0.70;;;;;;;;;;5066399;27;87601;-69
2023/01/17 03:19:05;;;;;;;3.50;0.80;;;;;;;;;;5048354;27;90016;-68
2023/01/17 03:21:32;;;;;;;1.38;0.63;;;;;;;;;;5066083;27;88722;-68
2023/01/17 03:23:58;;;;;;;2.80;0.65;;;;;;;;;;5066109;27;87616;-68
2023/01/17 03:26:25;;;;;;;3.15;1.00;;;;;;;;;;5063248;27;89894;-68
2023/01/17 03:28:51;;;;;;;3.33;0.60;;;;;;;;;;5056472;27;88346;-69
2023/01/17 03:31:18;;;;;;;3.40;0.70;;;;;;;;;;5066256;27;87943;-68
2023/01/17 03:33:45;;;;;;;2.60;0.90;;;;;;;;;;5069061;27;88635;-68
2023/01/17 03:36:11;;;;;;;3.50;0.70;;;;;;;;;;5066084;27;87643;-69
2023/01/17 03:38:38;;;;;;;2.70;0.80;;;;;;;;;;5057026;27;90220;-69
2023/01/17 03:41:05;;;;;;;2.58;0.70;;;;;;;;;;5065705;27;88534;-69
2023/01/17 03:43:31;;;;;;;3.20;0.80;;;;;;;;;;5057639;27;86955;-69
2023/01/17 03:46:01;;;;;;;5.13;0.80;;;;;;;;;;5066112;27;87494;-69
2023/01/17 03:48:28;;;;;;;4.65;0.82;;;;;;;;;;5064323;27;88221;-69
2023/01/17 03:50:54;;;;;;;3.35;0.80;;;;;;;;;;5065320;27;88366;-69
2023/01/17 03:53:20;;;;;;;2.75;0.90;;;;;;;;;;5065592;27;88806;-69
2023/01/17 03:55:48;;;;;;;1.45;0.90;;;;;;;;;;5060977;27;88560;-69
2023/01/17 03:58:15;;;;;;;4.25;0.90;;;;;;;;;;5061567;27;88088;-69
2023/01/17 04:00:41;;;;;;;3.17;0.65;;;;;;;;;;5065751;27;88635;-69
2023/01/17 04:03:08;;;;;;;4.28;1.10;;;;;;;;;;5047449;27;87860;-69
2023/01/17 04:05:34;;;;;;;3.05;0.90;;;;;;;;;;5064486;27;88985;-69
2023/01/17 04:08:01;;;;;;;2.22;0.70;;;;;;;;;;5065747;27;87921;-69
2023/01/17 04:10:27;;;;;;;2.72;0.70;;;;;;;;;;5065654;27;87981;-69
2023/01/17 04:12:53;;;;;;;1.23;0.68;;;;;;;;;;5054967;27;88425;-69
2023/01/17 04:15:20;;;;;;;2.90;0.90;;;;;;;;;;5065007;27;89490;-69
2023/01/17 04:17:46;;;;;;;2.05;1.10;;;;;;;;;;5068154;27;88170;-69
2023/01/17 04:20:17;;;;;;;5.93;0.80;;;;;;;;;;5065649;27;89178;-69
2023/01/17 04:22:43;;;;;;;4.22;0.80;;;;;;;;;;5050964;27;87921;-69
2023/01/17 04:25:09;;;;;;;2.00;0.63;;;;;;;;;;5057553;27;87907;-68
2023/01/17 04:27:36;;;;;;;2.47;0.50;;;;;;;;;;5050340;27;88877;-68
2023/01/17 04:30:02;;;;;;;2.90;0.73;;;;;;;;;;5065654;27;88008;-68
2023/01/17 04:32:29;;;;;;;3.00;0.65;;;;;;;;;;5065777;27;87902;-68
2023/01/17 04:34:55;;;;;;;6.80;0.70;;;;;;;;;;5065530;27;88678;-68
2023/01/17 04:37:22;;;;;;;2.17;0.57;;;;;;;;;;5059158;27;87455;-68
2023/01/17 04:39:48;;;;;;;3.30;0.90;;;;;;;;;;5067528;27;88692;-68
2023/01/17 04:42:15;;;;;;;3.72;0.80;;;;;;;;;;5064550;27;87732;-68
2023/01/17 04:44:41;;;;;;;5.68;0.70;;;;;;;;;;5064085;27;89102;-69
2023/01/17 04:47:07;;;;;;;2.38;0.70;;;;;;;;;;5063295;27;88723;-69
2023/01/17 04:49:34;;;;;;;0.52;0.50;;;;;;;;;;5064455;27;87670;-69
2023/01/17 04:52:00;;;;;;;4.57;0.70;;;;;;;;;;5065098;27;87907;-69
2023/01/17 04:54:27;;;;;;;1.90;0.73;;;;;;;;;;5057676;27;88394;-69
2023/01/17 04:56:53;;;;;;;2.65;0.75;;;;;;;;;;5049926;27;86852;-69
2023/01/17 04:59:20;;;;;;;2.88;0.80;;;;;;;;;;5064960;27;87793;-68
2023/01/17 05:01:47;;;;;;;2.90;0.60;;;;;;;;;;5064362;27;89089;-68
2023/01/17 05:04:14;;;;;;;3.15;1.00;;;;;;;;;;5063931;27;88610;-68
2023/01/17 05:06:40;;;;;;;4.05;1.23;;;;;;;;;;5064028;27;88392;-68
2023/01/17 05:09:07;;;;;;;3.05;1.00;;;;;;;;;;5063826;27;87803;-68
2023/01/17 05:11:33;;;;;;;3.38;1.10;;;;;;;;;;5058457;27;88097;-68
2023/01/17 05:13:59;;;;;;;4.30;1.00;;;;;;;;;;5049810;27;88374;-68
2023/01/17 05:16:26;;;;;;;4.22;0.90;;;;;;;;;;5046656;27;87696;-68
2023/01/17 05:18:52;;;;;;;2.80;0.70;;;;;;;;;;5064177;27;88131;-68
2023/01/17 05:21:19;;;;;;;3.58;0.90;;;;;;;;;;5064362;27;87050;-68
2023/01/17 05:23:46;;;;;;;4.43;0.80;;;;;;;;;;5066816;27;87545;-68
2023/01/17 05:26:12;;;;;;;2.65;1.00;;;;;;;;;;5049395;27;89683;-68
2023/01/17 05:28:38;;;;;;;4.85;0.93;;;;;;;;;;5054293;27;88314;-68
2023/01/17 05:31:05;;;;;;;4.40;0.93;;;;;;;;;;5064580;27;88935;-69
2023/01/17 05:33:31;;;;;;;3.05;1.00;;;;;;;;;;5045563;27;88374;-68
2023/01/17 05:35:58;;;;;;;5.50;0.95;;;;;;;;;;5050912;27;87614;-69
2023/01/17 05:38:24;;;;;;;3.83;1.00;;;;;;;;;;5061203;27;88116;-68
2023/01/17 05:40:51;;;;;;;3.42;0.90;;;;;;;;;;5064667;27;88375;-69
2023/01/17 05:43:17;;;;;;;7.28;2.38;;;;;;;;;;5066502;27;88808;-68
2023/01/17 05:45:46;;;;;;;4.80;1.40;;;;;;;;;;5064823;27;87518;-69
2023/01/17 05:48:13;;;;;;;5.07;1.25;;;;;;;;;;5062804;27;88321;-68
2023/01/17 05:50:39;;;;;;;4.43;1.10;;;;;;;;;;5054193;27;88431;-69
2023/01/17 05:53:07;;;;;;;3.38;1.20;;;;;;;;;;5063665;27;89625;-69
2023/01/17 05:55:34;;;;;;;5.38;1.30;;;;;;;;;;5058235;27;87583;-69
2023/01/17 05:58:01;;;;;;;5.10;1.50;;;;;;;;;;5051027;27;88225;-69
2023/01/17 06:00:28;;;;;;;5.20;1.30;;;;;;;;;;5044029;27;88639;-68
2023/01/17 06:02:55;;;;;;;4.20;1.30;;;;;;;;;;5067416;27;87932;-69
2023/01/17 06:05:23;;;;;;;3.95;1.17;;;;;;;;;;5070249;27;88070;-68
2023/01/17 06:07:49;;;;;;;3.35;1.13;;;;;;;;;;5067270;27;87673;-68
2023/01/17 06:10:19;;;;;;;6.28;1.33;;;;;;;;;;5068144;27;88594;-69
2023/01/17 06:12:46;;;;;;;4.18;1.50;;;;;;;;;;5056433;27;88427;-69
2023/01/17 06:15:13;;;;;;;4.22;1.30;;;;;;;;;;5067635;27;87890;-68
2023/01/17 06:17:39;;;;;;;5.25;1.50;;;;;;;;;;5062918;27;88271;-69
2023/01/17 06:20:07;;;;;;;6.03;1.60;;;;;;;;;;5067667;27;88967;-68
2023/01/17 06:22:33;;;;;;;8.98;3.67;;;;;;;;;;5066940;27;88575;-68
2023/01/17 06:25:00;;;;;;;14.70;5.63;;;;;;;;;;5067677;27;88113;-69
2023/01/17 06:27:26;;;;;;;7.88;2.65;;;;;;;;;;5059181;27;88231;-68
2023/01/17 06:29:52;;;;;;;6.80;1.60;;;;;;;;;;5067113;27;87852;-69
2023/01/17 06:32:19;;;;;;;4.60;1.70;;;;;;;;;;5066589;27;88986;-68
2023/01/17 06:34:45;;;;;;;4.22;1.50;;;;;;;;;;5066963;27;87211;-68
2023/01/17 06:37:11;;;;;;;5.80;1.60;;;;;;;;;;5067099;27;87920;-68
2023/01/17 06:39:38;;;;;;;4.97;1.40;;;;;;;;;;5048737;27;88558;-68
2023/01/17 06:42:05;;;;;;;6.88;1.60;;;;;;;;;;5047838;27;89959;-69
2023/01/17 06:44:31;;;;;;;4.32;1.45;;;;;;;;;;5067068;27;88850;-69
2023/01/17 06:46:57;;;;;;;4.85;1.65;;;;;;;;;;5046523;27;88532;-69
2023/01/17 06:49:24;;;;;;;5.10;1.33;;;;;;;;;;5069997;27;87509;-69
2023/01/17 06:51:50;;;;;;;5.95;2.08;;;;;;;;;;5066692;27;88421;-68
2023/01/17 06:54:18;;;;;;;7.22;1.70;;;;;;;;;;5063457;27;88091;-68
2023/01/17 06:56:44;;;;;;;5.07;1.67;;;;;;;;;;5050005;27;88075;-68
2023/01/17 06:59:10;;;;;;;6.53;1.70;;;;;;;;;;5038845;27;87721;-69
2023/01/17 07:01:37;;;;;;;6.43;1.60;;;;;;;;;;5066530;27;87687;-68
2023/01/17 07:04:03;;;;;;;3.95;1.48;;;;;;;;;;5066417;27;88387;-69
2023/01/17 07:06:30;;;;;;;4.80;1.25;;;;;;;;;;5065686;27;89068;-69
2023/01/17 07:08:57;;;;;;;4.20;1.55;;;;;;;;;;5066590;27;87644;-68
2023/01/17 07:11:26;;;;;;;6.05;1.65;;;;;;;;;;5063877;27;88179;-69
2023/01/17 07:13:52;;;;;;;7.15;1.73;;;;;;;;;;5059101;27;88002;-68
2023/01/17 07:16:19;;;;;;;5.40;2.22;;;;;;;;;;5066713;27;88048;-69
2023/01/17 07:18:45;;;;;;;5.25;1.85;;;;;;;;;;5066174;27;88317;-69
2023/01/17 07:21:13;;;;;;;6.68;1.70;;;;;;;;;;5066371;27;87761;-69
2023/01/17 07:23:39;;;;;;;7.15;2.28;;;;;;;;;;5048259;27;88421;-69
2023/01/17 07:26:06;;;;;;;7.80;2.50;;;;;;;;;;5066112;27;88750;-69
2023/01/17 07:28:32;;;;;;;5.38;1.88;;;;;;;;;;5055381;27;88249;-69
2023/01/17 07:31:03;;;;;;;4.53;1.50;;;;;;;;;;5066046;27;88744;-69
2023/01/17 07:33:29;;;;;;;5.25;1.50;;;;;;;;;;5056859;27;88263;-69
2023/01/17 07:35:56;;;;;;;4.82;1.70;;;;;;;;;;5066399;27;88775;-68
2023/01/17 07:38:22;;;;;;;5.07;1.70;;;;;;;;;;5065662;27;88385;-69
2023/01/17 07:40:48;;;;;;;6.75;1.77;;;;;;;;;;5064429;27;88884;-68
2023/01/17 07:43:16;;;;;;;7.60;1.92;;;;;;;;;;5065464;27;88256;-69
2023/01/17 07:45:43;;;;;;;5.40;1.85;;;;;;;;;;5065770;27;88845;-69
2023/01/17 07:48:10;;;;;;;;;;;;;;;;;;5064680;27;87335;-69
2023/01/17 07:50:36;;;;;;;5.05;1.73;;;;;;;;;;5062174;27;116859;-68
2023/01/17 07:53:03;;;;;;;4.15;1.40;;;;;;;;;;5059604;27;88981;-68
2023/01/17 07:55:30;;;;;;;4.07;1.40;;;;;;;;;;5058463;27;88801;-69
2023/01/17 07:57:56;;;;;;;3.83;1.10;;;;;;;;;;5036346;27;88765;-69
2023/01/17 08:00:26;;;;;;;5.45;1.30;;;;;;;;;;5065075;27;87998;-68
2023/01/17 08:02:56;;;;;;;3.05;1.15;;;;;;;;;;5063842;27;88040;-69
2023/01/17 08:05:23;;;;;;;4.35;1.00;;;;;;;;;;5064585;27;88105;-69
2023/01/17 08:07:49;;;;;;;3.58;1.20;;;;;;;;;;5064517;27;87998;-67
2023/01/17 08:10:16;;;;;;;3.15;1.40;;;;;;;;;;5062930;27;87885;-68
2023/01/17 08:12:47;;;;;;;3.42;1.00;;;;;;;;;;5063830;27;87614;-68
2023/01/17 08:15:14;;;;;;;4.40;1.30;;;;;;;;;;5067812;27;87929;-68
2023/01/17 08:17:44;;;;;;;2.70;1.02;;;;;;;;;;5064570;27;88734;-69
2023/01/17 08:20:11;;;;;;;4.80;1.33;;;;;;;;;;5064010;27;88706;-69
2023/01/17 08:22:37;;;;;;;4.60;1.30;;;;;;;;;;5063037;27;88811;-68
2023/01/17 08:25:04;;;;;;;2.38;0.85;;;;;;;;;;5061854;27;88498;-68
2023/01/17 08:27:30;;;;;;;3.03;1.00;;;;;;;;;;5051295;27;88060;-68
2023/01/17 08:29:57;;;;;;;4.80;1.30;;;;;;;;;;5064772;27;88497;-68
2023/01/17 08:32:23;;;;;;;4.00;1.30;;;;;;;;;;5054963;27;88249;-68
2023/01/17 08:34:50;;;;;;;2.95;1.08;;;;;;;;;;5046249;27;88117;-68
2023/01/17 08:37:16;;;;;;;4.80;1.48;;;;;;;;;;5066966;27;88555;-68
2023/01/17 08:39:42;;;;;;;3.53;1.23;;;;;;;;;;5061034;27;87677;-68
2023/01/17 08:42:09;;;;;;;3.88;1.55;;;;;;;;;;5051293;27;87910;-68
2023/01/17 08:44:37;;;;;;;2.38;0.80;;;;;;;;;;5064114;27;89043;-68
2023/01/17 08:47:03;;;;;;;7.72;1.15;;;;;;;;;;5045148;27;89049;-68
2023/01/17 08:49:30;;;;;;;3.35;1.13;;;;;;;;;;5063340;27;90336;-68
2023/01/17 08:51:57;;;;;;;3.22;1.30;;;;;;;;;;5064059;27;88815;-69
2023/01/17 08:54:23;;;;;;;4.13;1.20;;;;;;;;;;5064312;27;87706;-69
2023/01/17 08:56:51;;;;;;;3.17;0.90;;;;;;;;;;5044533;27;88842;-69
2023/01/17 08:59:17;;;;;;;3.75;1.10;;;;;;;;;;5054739;27;88360;-68
2023/01/17 09:01:44;;;;;;;3.83;1.17;;;;;;;;;;5064749;27;88428;-69
2023/01/17 09:04:11;;;;;;;3.42;1.20;;;;;;;;;;5064114;27;89076;-68
2023/01/17 09:06:38;;;;;;;3.17;1.10;;;;;;;;;;5062435;27;87606;-68
2023/01/17 09:09:06;;;;;;;3.95;1.13;;;;;;;;;;5063898;27;88893;-68
2023/01/17 09:11:32;;;;;;;2.63;1.00;;;;;;;;;;5062811;27;88706;-69
2023/01/17 09:14:00;;;;;;;3.90;1.10;;;;;;;;;;5063465;27;88120;-69
2023/01/17 09:16:27;;;;;;;2.72;1.10;;;;;;;;;;5063645;27;88399;-69
2023/01/17 09:18:54;;;;;;;3.63;1.27;;;;;;;;;;5063327;27;88869;-69
2023/01/17 09:21:21;;;;;;;3.55;1.40;;;;;;;;;;5061688;27;87629;-68
2023/01/17 09:23:47;;;;;;;3.75;1.10;;;;;;;;;;5062345;27;87810;-68
2023/01/17 09:26:34;;;;;;;3.03;1.20;;;;;;;;;;5060717;27;87302;-68
2023/01/17 09:29:00;;;;;;;2.40;1.15;;;;;;;;;;5056223;27;87559;-68
2023/01/17 09:31:27;;;;;;;2.20;1.10;;;;;;;;;;5063578;27;88262;-69
2023/01/17 09:33:54;;;;;;;4.15;1.20;;;;;;;;;;5063008;27;88798;-69
2023/01/17 09:36:21;;;;;;;5.07;1.35;;;;;;;;;;5057387;27;88579;-68
2023/01/17 09:38:48;;;;;;;3.67;1.20;;;;;;;;;;5054639;27;88383;-68
2023/01/17 09:41:26;;;;;;;3.58;1.10;;;;;;;;;;5062559;27;87620;-68
2023/01/17 09:43:52;;;;;;;3.63;1.10;;;;;;;;;;5047187;27;88033;-69
2023/01/17 09:46:22;;;;;;;2.88;1.00;;;;;;;;;;5063476;27;87601;-69
2023/01/17 09:49:11;;;;;;;2.42;1.10;;;;;;;;;;5057663;27;88921;-69
2023/01/17 09:51:38;;;;;;;4.72;1.40;;;;;;;;;;5063458;27;88403;-69
2023/01/17 09:54:04;;;;;;;3.35;1.25;;;;;;;;;;5042610;27;88302;-68
2023/01/17 09:56:34;;;;;;;2.88;1.10;;;;;;;;;;5061196;27;88293;-68
2023/01/17 09:59:28;;;;;;;2.58;1.20;;;;;;;;;;5061587;27;89584;-69
2023/01/17 10:02:19;;;;;;;3.08;1.30;;;;;;;;;;5060600;27;87742;-69
2023/01/17 10:05:01;;;;;;;3.22;1.17;;;;;;;;;;5050329;27;88073;-69
2023/01/17 10:07:27;;;;;;;3.75;1.20;;;;;;;;;;5058985;27;87558;-68
2023/01/17 10:09:57;;;;;;;4.10;1.35;;;;;;;;;;5059175;27;88432;-69
2023/01/17 10:12:23;;;;;;;6.30;1.20;;;;;;;;;;5061752;27;89098;-69
2023/01/17 10:14:54;;;;;;;3.70;1.23;;;;;;;;;;5063017;27;88294;-69
2023/01/17 10:17:45;;;;;;;3.88;1.30;;;;;;;;;;5062992;27;87805;-68
2023/01/17 10:20:17;;;;;;;4.78;1.40;;;;;;;;;;5044780;27;90195;-69
2023/01/17 10:22:56;;;;;;;4.05;1.38;;;;;;;;;;5060706;27;87802;-69
2023/01/17 10:25:38;;;;;;;3.70;1.33;;;;;;;;;;5059449;27;89635;-69
2023/01/17 10:28:13;;;;;;;3.00;1.20;;;;;;;;;;5061520;27;88268;-69
2023/01/17 10:30:44;;;;;;;4.90;1.40;;;;;;;;;;5060063;27;87955;-69
2023/01/17 10:33:17;;;;;;;3.92;1.50;;;;;;;;;;5062478;27;88695;-69
2023/01/17 10:35:52;;;;;;;4.25;1.35;;;;;;;;;;5061532;27;88260;-69
2023/01/17 10:38:20;;;;;;;3.67;1.50;;;;;;;;;;5051920;27;88162;-69
2023/01/17 10:40:53;;;;;;;3.50;1.10;;;;;;;;;;5060334;27;87848;-68
2023/01/17 10:43:38;;;;;;;4.03;1.40;;;;;;;;;;5063299;27;87531;-69
2023/01/17 10:46:09;;;;;;;6.95;1.92;;;;;;;;;;5058901;27;88451;-69
2023/01/17 10:48:41;;;;;;;5.53;1.67;;;;;;;;;;5061117;27;88295;-69
2023/01/17 10:51:10;;;;;;;5.82;1.70;;;;;;;;;;5063297;27;88260;-69
2023/01/17 10:53:36;;;;;;;5.57;1.65;;;;;;;;;;5065465;27;88749;-69
2023/01/17 10:56:03;;;;;;;4.97;1.40;;;;;;;;;;5062840;27;87779;-69
2023/01/17 10:58:30;;;;;;;7.63;1.63;;;;;;;;;;5064429;27;89705;-69
2023/01/17 11:00:56;;;;;;;8.02;1.73;;;;;;;;;;5052117;27;88450;-68
2023/01/17 11:03:24;;;;;;;4.18;1.60;;;;;;;;;;5062748;27;88257;-68
2023/01/17 11:06:09;;;;;;;4.50;1.63;;;;;;;;;;5062504;27;89234;-69
2023/01/17 11:08:52;;;;;;;4.43;1.58;;;;;;;;;;5065510;27;87047;-69
2023/01/17 11:11:20;;;;;;;4.97;1.60;;;;;;;;;;5047569;27;88225;-69
2023/01/17 11:13:47;;;;;;;4.78;1.60;;;;;;;;;;5068308;27;88164;-69
2023/01/17 11:16:18;;;;;;;5.55;1.60;;;;;;;;;;5052310;27;88379;-69
2023/01/17 11:18:44;;;;;;;4.80;1.60;;;;;;;;;;5064077;27;89176;-69
2023/01/17 11:21:22;;;;;;;4.13;1.40;;;;;;;;;;5044474;27;90271;-68
2023/01/17 11:23:55;;;;;;;4.93;1.60;;;;;;;;;;5063083;27;89563;-68
2023/01/17 11:26:26;;;;;;;3.47;1.33;;;;;;;;;;5042702;27;90560;-69
2023/01/17 11:29:11;;;;;;;3.08;1.40;;;;;;;;;;5043640;27;91140;-67
2023/01/17 11:31:38;;;;;;;3.50;1.40;;;;;;;;;;5063763;27;87898;-68
2023/01/17 11:34:21;;;;;;;4.78;1.83;;;;;;;;;;5055499;27;88236;-69
2023/01/17 11:36:48;;;;;;;4.25;1.50;;;;;;;;;;5065292;27;88651;-67
2023/01/17 11:39:18;;;;;;;5.53;1.60;;;;;;;;;;5059758;27;87932;-67
2023/01/17 11:41:46;;;;;;;5.03;1.38;;;;;;;;;;5061250;27;89689;-68
2023/01/17 11:44:23;;;;;;;3.85;1.50;;;;;;;;;;5057739;27;87905;-68
2023/01/17 11:47:14;;;;;;;5.18;1.50;;;;;;;;;;5063297;27;87900;-68
2023/01/17 11:49:42;;;;;;;4.78;1.60;;;;;;;;;;5061986;27;89179;-68
2023/01/17 11:52:26;;;;;;;4.07;1.70;;;;;;;;;;5061880;27;88000;-69
2023/01/17 11:54:53;;;;;;;4.95;1.70;;;;;;;;;;5062986;27;87515;-68
2023/01/17 11:57:27;;;;;;;6.32;1.50;;;;;;;;;;5042869;27;89005;-68
2023/01/17 11:59:59;;;;;;;6.55;1.70;;;;;;;;;;5062936;27;87545;-68
2023/01/17 12:02:44;;;;;;;4.40;1.60;;;;;;;;;;5039503;27;89048;-69
2023/01/17 12:05:29;;;;;;;4.60;1.58;;;;;;;;;;5064531;27;87609;-69
2023/01/17 12:08:02;;;;;;;3.75;1.50;;;;;;;;;;5060531;27;88371;-69
2023/01/17 12:10:52;;;;;;;5.00;1.73;;;;;;;;;;5043980;27;88951;-69
2023/01/17 12:16:29;;;;;;;4.10;1.50;;;;;;;;;;5059700;27;88053;-69
2023/01/17 12:19:04;;;;;;;3.30;1.20;;;;;;;;;;5056357;27;88314;-69
2023/01/17 12:21:37;;;;;;;4.05;1.58;;;;;;;;;;5067435;27;87698;-69
2023/01/17 12:24:22;;;;;;;4.40;1.42;;;;;;;;;;5023048;28;88347;-71
2023/01/17 12:27:04;;;;;;;4.45;1.50;;;;;;;;;;5026941;28;87379;-73
2023/01/17 12:29:31;;;;;;;4.70;1.50;;;;;;;;;;5034078;28;88087;-73
2023/01/17 12:32:16;;;;;;;5.97;1.33;;;;;;;;;;5030073;28;88850;-72
2023/01/17 12:34:46;;;;;;;7.32;1.77;;;;;;;;;;5038189;28;88607;-72
2023/01/17 12:37:21;;;;;;;3.78;1.40;;;;;;;;;;5040271;27;89570;-72
2023/01/17 12:39:52;;;;;;;5.15;1.60;;;;;;;;;;5041589;28;89563;-75
2023/01/17 12:42:29;;;;;;;2.70;1.27;;;;;;;;;;5031470;28;88138;-72
2023/01/17 12:45:03;;;;;;;4.97;1.40;;;;;;;;;;5044733;28;88305;-73
2023/01/17 12:47:32;;;;;;;4.72;1.33;;;;;;;;;;5030454;28;87958;-73
2023/01/17 12:50:14;;;;;;;12.88;1.60;;;;;;;;;;5042358;28;87999;-73
2023/01/17 12:52:43;;;;;;;9.73;1.80;;;;;;;;;;5036215;28;87538;-71
2023/01/17 12:55:19;;;;;;;6.25;1.17;;;;;;;;;;5041794;28;88035;-72
2023/01/17 12:57:50;;;;;;;5.32;1.60;;;;;;;;;;5037526;28;88129;-70
2023/01/17 13:00:21;;;;;;;9.98;2.00;;;;;;;;;;5026864;28;89268;-72
2023/01/17 13:02:57;;;;;;;8.27;1.60;;;;;;;;;;5035806;27;87697;-71
2023/01/17 13:05:29;;;;;;;3.63;1.20;;;;;;;;;;5039041;28;88189;-72
2023/01/17 13:08:02;;;;;;;4.75;1.63;;;;;;;;;;5033769;28;88438;-71
2023/01/17 13:10:39;;;;;;;4.20;1.50;;;;;;;;;;5044286;27;88391;-72
2023/01/17 13:13:18;;;;;;;5.75;1.50;;;;;;;;;;5035535;28;87995;-72
2023/01/17 13:15:46;;;;;;;4.68;1.17;;;;;;;;;;5025368;28;87818;-68
2023/01/17 13:18:12;;;;;;;;;;;;;;;;;;5025944;28;88130;-72
2023/01/17 13:20:42;;;;;;;3.45;1.30;;;;;;;;;;5040749;28;117401;-71
2023/01/17 13:23:11;;;;;;;4.72;1.40;;;;;;;;;;5037251;27;87728;-72
2023/01/17 13:25:41;;;;;;;2.70;1.27;;;;;;;;;;5041914;27;88604;-70
2023/01/17 13:28:07;;;;;;;3.30;1.10;;;;;;;;;;5055280;27;88319;-71
2023/01/17 13:30:37;;;;;;;3.55;1.35;;;;;;;;;;5062197;27;88153;-72
2023/01/17 13:33:22;;;;;;;2.75;1.30;;;;;;;;;;5056106;27;90795;-71
2023/01/17 13:35:49;;;;;;;2.58;1.20;;;;;;;;;;5044789;27;88833;-71
2023/01/17 13:38:34;;;;;;;3.35;1.60;;;;;;;;;;5060866;27;88221;-71
2023/01/17 13:41:04;;;;;;;3.20;1.23;;;;;;;;;;5063380;27;88707;-72
2023/01/17 13:43:35;;;;;;;3.22;1.23;;;;;;;;;;5060010;27;87286;-72
2023/01/17 13:46:02;;;;;;;3.70;1.17;;;;;;;;;;5061384;27;89441;-72
2023/01/17 13:48:39;;;;;;;2.72;1.20;;;;;;;;;;5060142;27;89504;-71
2023/01/17 13:51:06;;;;;;;2.80;1.20;;;;;;;;;;5062985;27;88928;-72
2023/01/17 13:53:38;;;;;;;4.53;1.30;;;;;;;;;;5062172;27;89160;-71
2023/01/17 13:56:23;;;;;;;3.33;1.40;;;;;;;;;;5059363;27;87952;-71
2023/01/17 13:59:01;;;;;;;2.30;1.10;;;;;;;;;;5059655;27;87980;-71
2023/01/17 14:01:30;;;;;;;4.15;1.30;;;;;;;;;;5059569;27;88379;-71
2023/01/17 14:03:57;;;;;;;4.03;1.27;;;;;;;;;;5060101;27;87501;-72
2023/01/17 14:06:35;;;;;;;2.53;1.30;;;;;;;;;;5041306;27;88292;-71
2023/01/17 14:09:11;;;;;;;3.40;1.40;;;;;;;;;;5060344;27;87195;-71
2023/01/17 14:11:56;;;;;;;2.97;1.33;;;;;;;;;;5057975;27;87610;-71
2023/01/17 14:14:35;;;;;;;4.35;1.30;;;;;;;;;;5051642;27;88693;-70
2023/01/17 14:17:19;;;;;;;2.88;1.20;;;;;;;;;;5053066;27;88842;-72
2023/01/17 14:19:47;;;;;;;2.83;1.00;;;;;;;;;;5043317;27;88835;-73
2023/01/17 14:22:19;;;;;;;2.80;1.20;;;;;;;;;;5041601;27;90307;-71
2023/01/17 14:25:08;;;;;;;3.42;1.30;;;;;;;;;;5060590;27;87949;-75
2023/01/17 14:27:41;;;;;;;3.40;1.20;;;;;;;;;;5035818;27;88085;-71
2023/01/17 14:30:33;;;;;;;3.75;1.10;;;;;;;;;;5047920;27;88081;-70
2023/01/17 14:33:00;;;;;;;3.97;1.23;;;;;;;;;;5056231;27;87930;-70
2023/01/17 14:35:30;;;;;;;6.72;1.30;;;;;;;;;;5053678;27;88086;-72
2023/01/17 14:38:00;;;;;;;3.95;1.30;;;;;;;;;;5052863;27;88682;-71
2023/01/17 14:40:29;;;;;;;2.50;1.20;;;;;;;;;;5046270;27;88495;-71
2023/01/17 14:43:03;;;;;;;3.88;1.35;;;;;;;;;;5035831;27;88899;-71
2023/01/17 14:45:31;;;;;;;4.10;1.40;;;;;;;;;;5050716;27;87880;-71
2023/01/17 14:47:59;;;;;;;3.85;1.30;;;;;;;;;;5050964;27;88041;-71
2023/01/17 14:50:28;;;;;;;3.60;1.10;;;;;;;;;;5047945;27;90251;-71
2023/01/17 14:53:21;;;;;;;4.03;1.20;;;;;;;;;;5037346;27;87743;-72
2023/01/17 14:55:50;;;;;;;4.20;1.20;;;;;;;;;;5057711;27;88040;-70
2023/01/17 14:58:17;;;;;;;;;;;;;;;;;;5058744;27;87727;-70
2023/01/17 15:00:44;;;;;;;6.15;1.30;;;;;;;;;;5070238;27;116096;-71
2023/01/17 15:03:11;;;;;;;8.10;1.25;;;;;;;;;;5061399;27;88643;-71
2023/01/17 15:05:41;;;;;;;4.50;1.30;;;;;;;;;;5065914;27;87983;-71
2023/01/17 15:08:12;;;;;;;2.28;1.10;;;;;;;;;;5041295;27;88421;-70
2023/01/17 15:10:59;;;;;;;3.55;1.08;;;;;;;;;;5055908;27;88118;-70
2023/01/17 15:13:40;;;;;;;2.92;1.40;;;;;;;;;;5035520;27;87806;-70
2023/01/17 15:16:22;;;;;;;3.67;1.40;;;;;;;;;;5066177;27;88829;-70
2023/01/17 15:18:49;;;;;;;3.45;1.25;;;;;;;;;;5059032;27;88742;-71
2023/01/17 15:21:18;;;;;;;3.40;1.45;;;;;;;;;;5059765;27;88039;-71
2023/01/17 15:24:01;;;;;;;4.22;1.60;;;;;;;;;;5060329;27;88978;-71
2023/01/17 15:26:30;;;;;;;3.63;1.30;;;;;;;;;;5055771;27;87175;-70
2023/01/17 15:29:02;;;;;;;4.72;1.58;;;;;;;;;;5055205;27;87992;-70
2023/01/17 15:31:46;;;;;;;3.78;1.38;;;;;;;;;;5063859;27;88442;-71
2023/01/17 15:34:32;;;;;;;3.63;1.50;;;;;;;;;;5033640;27;89056;-71
2023/01/17 15:37:00;;;;;;;3.80;1.50;;;;;;;;;;5051103;27;88923;-70
2023/01/17 15:39:29;;;;;;;3.35;1.30;;;;;;;;;;5055217;27;88331;-71
2023/01/17 15:41:56;;;;;;;3.20;1.40;;;;;;;;;;5058752;27;88929;-71
2023/01/17 15:44:35;;;;;;;5.55;1.40;;;;;;;;;;5034376;27;88427;-71
2023/01/17 15:47:31;;;;;;;2.90;1.40;;;;;;;;;;5063164;27;88267;-70
2023/01/17 15:49:59;;;;;;;4.68;1.50;;;;;;;;;;5065166;27;88042;-71
2023/01/17 15:52:26;;;;;;;4.07;1.50;;;;;;;;;;5062296;27;87918;-71
2023/01/17 15:54:57;;;;;;;5.13;1.50;;;;;;;;;;5054719;27;89153;-71
2023/01/17 15:57:26;;;;;;;3.65;1.60;;;;;;;;;;5041405;27;88064;-70
2023/01/17 15:59:58;;;;;;;5.82;1.80;;;;;;;;;;5061425;27;89078;-72
2023/01/17 16:02:31;;;;;;;4.20;1.40;;;;;;;;;;5057537;27;89213;-71
2023/01/17 16:04:58;;;;;;;4.18;1.77;;;;;;;;;;5064851;27;88384;-71
2023/01/17 16:07:32;;;;;;;4.38;2.00;;;;;;;;;;5053814;27;88444;-71
2023/01/17 16:10:07;;;;;;;4.43;1.85;;;;;;;;;;5059844;27;87719;-71
2023/01/17 16:12:33;;;;;;;5.97;2.30;;;;;;;;;;5055823;27;88725;-71
2023/01/17 16:15:00;;;;;;;5.30;2.40;;;;;;;;;;5062466;27;87565;-70
2023/01/17 16:17:39;;;;;;;6.13;2.75;;;;;;;;;;5030882;27;88094;-71
2023/01/17 16:20:10;;;;;;;7.30;2.58;;;;;;;;;;5056176;27;87959;-70
2023/01/17 16:22:37;;;;;;;6.93;2.92;;;;;;;;;;5056733;27;87803;-73
2023/01/17 16:25:11;;;;;;;6.30;3.00;;;;;;;;;;5030710;28;90284;-72
2023/01/17 16:27:40;;;;;;;6.72;3.20;;;;;;;;;;5062410;27;88699;-72